sensor_id;sensor_type;location;lat;lon;timestamp;pressure;altitude;pressure_sealevel;temperature;humidity
23473;BME280;11909;52.516;13.564;2023-02-22T00:01:35;101089.22;;;6.85;84.77
23473;BME280;11909;52.516;13.564;2023-02-22T00:04:16;101096.34;;;6.86;83.78
23473;BME280;11909;52.516;13.564;2023-02-22T00:06:47;101101.88;;;6.92;83.17
23473;BME280;11909;52.516;13.564;2023-02-22T00:09:16;101099.16;;;6.92;82.72
23473;BME280;11909;52.516;13.564;2023-02-22T00:11:46;101101.03;;;6.91;82.91
23473;BME280;11909;52.516;13.564;2023-02-22T00:14:16;101100.00;;;6.92;83.50
23473;BME280;11909;52.516;13.564;2023-02-22T00:16:46;101090.97;;;6.92;83.58
23473;BME280;11909;52.516;13.564;2023-02-22T00:19:14;101083.84;;;6.91;83.62
23473;BME280;11909;52.516;13.564;2023-02-22T00:21:41;101087.38;;;6.91;83.97
23473;BME280;11909;52.516;13.564;2023-02-22T00:24:10;101075.50;;;6.97;83.39
23473;BME280;11909;52.516;13.564;2023-02-22T00:26:49;101086.34;;;6.92;83.52
23473;BME280;11909;52.516;13.564;2023-02-22T00:29:18;101079.97;;;6.86;84.14
23473;BME280;11909;52.516;13.564;2023-02-22T00:31:46;101091.63;;;6.82;84.62
23473;BME280;11909;52.516;13.564;2023-02-22T00:34:14;101075.97;;;6.77;85.16
23473;BME280;11909;52.516;13.564;2023-02-22T00:36:45;101076.75;;;6.72;85.07
23473;BME280;11909;52.516;13.564;2023-02-22T00:39:13;101079.97;;;6.69;85.36
23473;BME280;11909;52.516;13.564;2023-02-22T00:41:41;101082.34;;;6.66;85.46
23473;BME280;11909;52.516;13.564;2023-02-22T00:44:09;101078.69;;;6.60;85.68
23473;BME280;11909;52.516;13.564;2023-02-22T00:46:38;101077.28;;;6.57;85.16
23473;BME280;11909;52.516;13.564;2023-02-22T00:49:06;101078.25;;;6.51;85.13
23473;BME280;11909;52.516;13.564;2023-02-22T00:51:34;101077.09;;;6.47;85.66
23473;BME280;11909;52.516;13.564;2023-02-22T00:54:02;101072.63;;;6.41;85.84
23473;BME280;11909;52.516;13.564;2023-02-22T00:56:31;101072.28;;;6.37;85.75
23473;BME280;11909;52.516;13.564;2023-02-22T00:59:00;101077.72;;;6.37;85.51
23473;BME280;11909;52.516;13.564;2023-02-22T01:01:27;101085.56;;;6.34;85.93
23473;BME280;11909;52.516;13.564;2023-02-22T01:03:57;101082.50;;;6.30;86.36
23473;BME280;11909;52.516;13.564;2023-02-22T01:06:24;101077.06;;;6.30;86.77
23473;BME280;11909;52.516;13.564;2023-02-22T01:08:52;101078.94;;;6.29;87.18
23473;BME280;11909;52.516;13.564;2023-02-22T01:11:20;101084.66;;;6.28;87.69
23473;BME280;11909;52.516;13.564;2023-02-22T01:13:48;101082.16;;;6.26;87.83
23473;BME280;11909;52.516;13.564;2023-02-22T01:16:19;101071.16;;;6.21;87.86
23473;BME280;11909;52.516;13.564;2023-02-22T01:18:47;101079.84;;;6.18;87.87
23473;BME280;11909;52.516;13.564;2023-02-22T01:21:16;101072.63;;;6.12;87.32
23473;BME280;11909;52.516;13.564;2023-02-22T01:23:45;101075.50;;;6.05;87.69
23473;BME280;11909;52.516;13.564;2023-02-22T01:26:13;101074.53;;;5.99;87.42
23473;BME280;11909;52.516;13.564;2023-02-22T01:28:41;101078.22;;;5.93;87.10
23473;BME280;11909;52.516;13.564;2023-02-22T01:31:09;101067.69;;;5.85;87.09
23473;BME280;11909;52.516;13.564;2023-02-22T01:33:39;101080.38;;;5.79;87.62
23473;BME280;11909;52.516;13.564;2023-02-22T01:36:07;101075.16;;;5.78;87.74
23473;BME280;11909;52.516;13.564;2023-02-22T01:38:38;101070.22;;;5.74;88.15
23473;BME280;11909;52.516;13.564;2023-02-22T01:41:05;101069.38;;;5.74;87.87
23473;BME280;11909;52.516;13.564;2023-02-22T01:43:33;101063.00;;;5.68;88.44
23473;BME280;11909;52.516;13.564;2023-02-22T01:46:02;101063.72;;;5.64;88.72
23473;BME280;11909;52.516;13.564;2023-02-22T01:48:34;101059.22;;;5.57;89.28
23473;BME280;11909;52.516;13.564;2023-02-22T01:51:07;101059.56;;;5.49;89.89
23473;BME280;11909;52.516;13.564;2023-02-22T01:53:43;101052.97;;;5.45;90.44
23473;BME280;11909;52.516;13.564;2023-02-22T01:56:12;101053.22;;;5.43;90.55
23473;BME280;11909;52.516;13.564;2023-02-22T01:58:44;101052.16;;;5.44;90.92
23473;BME280;11909;52.516;13.564;2023-02-22T02:01:13;101056.53;;;5.45;91.17
23473;BME280;11909;52.516;13.564;2023-02-22T02:04:03;101052.75;;;5.47;91.54
23473;BME280;11909;52.516;13.564;2023-02-22T02:06:33;101052.16;;;5.44;91.92
23473;BME280;11909;52.516;13.564;2023-02-22T02:09:09;101046.44;;;5.46;92.35
23473;BME280;11909;52.516;13.564;2023-02-22T02:11:39;101044.22;;;5.43;92.97
23473;BME280;11909;52.516;13.564;2023-02-22T02:14:08;101039.84;;;5.42;93.02
23473;BME280;11909;52.516;13.564;2023-02-22T02:16:38;101048.22;;;5.40;91.66
23473;BME280;11909;52.516;13.564;2023-02-22T02:19:15;101053.44;;;5.42;91.98
23473;BME280;11909;52.516;13.564;2023-02-22T02:22:16;101042.66;;;5.47;91.70
23473;BME280;11909;52.516;13.564;2023-02-22T02:25:16;101041.84;;;5.47;91.26
23473;BME280;11909;52.516;13.564;2023-02-22T02:28:21;101047.63;;;5.50;91.01
23473;BME280;11909;52.516;13.564;2023-02-22T02:31:08;101042.44;;;5.49;90.80
23473;BME280;11909;52.516;13.564;2023-02-22T02:33:43;101042.31;;;5.43;90.97
23473;BME280;11909;52.516;13.564;2023-02-22T02:36:17;101043.84;;;5.39;91.81
23473;BME280;11909;52.516;13.564;2023-02-22T02:38:51;101031.09;;;5.40;92.49
23473;BME280;11909;52.516;13.564;2023-02-22T02:41:25;101037.59;;;5.39;92.92
23473;BME280;11909;52.516;13.564;2023-02-22T02:43:57;101032.03;;;5.34;93.08
23473;BME280;11909;52.516;13.564;2023-02-22T02:46:31;101029.19;;;5.28;93.00
23473;BME280;11909;52.516;13.564;2023-02-22T02:49:06;101042.34;;;5.31;92.95
23473;BME280;11909;52.516;13.564;2023-02-22T02:51:37;101040.78;;;5.36;92.60
23473;BME280;11909;52.516;13.564;2023-02-22T02:54:07;101043.75;;;5.34;92.31
23473;BME280;11909;52.516;13.564;2023-02-22T02:56:36;101040.78;;;5.36;92.24
23473;BME280;11909;52.516;13.564;2023-02-22T02:59:23;101043.63;;;5.29;92.33
23473;BME280;11909;52.516;13.564;2023-02-22T03:01:59;101040.53;;;5.25;92.92
23473;BME280;11909;52.516;13.564;2023-02-22T03:04:47;101041.59;;;5.36;92.87
23473;BME280;11909;52.516;13.564;2023-02-22T03:07:38;101038.56;;;5.33;92.86
23473;BME280;11909;52.516;13.564;2023-02-22T03:10:19;101034.63;;;5.40;92.39
23473;BME280;11909;52.516;13.564;2023-02-22T03:12:56;101035.09;;;5.37;91.97
23473;BME280;11909;52.516;13.564;2023-02-22T03:15:36;101044.91;;;5.38;91.96
23473;BME280;11909;52.516;13.564;2023-02-22T03:18:13;101029.44;;;5.39;92.68
23473;BME280;11909;52.516;13.564;2023-02-22T03:20:49;101028.72;;;5.31;93.17
23473;BME280;11909;52.516;13.564;2023-02-22T03:23:24;101027.53;;;5.27;93.83
23473;BME280;11909;52.516;13.564;2023-02-22T03:25:57;101027.19;;;5.24;94.10
23473;BME280;11909;52.516;13.564;2023-02-22T03:28:27;101020.31;;;5.21;93.82
23473;BME280;11909;52.516;13.564;2023-02-22T03:30:58;101026.25;;;5.18;94.07
23473;BME280;11909;52.516;13.564;2023-02-22T03:33:31;101019.38;;;5.15;94.41
23473;BME280;11909;52.516;13.564;2023-02-22T03:36:08;101022.81;;;5.11;94.88
23473;BME280;11909;52.516;13.564;2023-02-22T03:38:38;101028.38;;;5.16;94.56
23473;BME280;11909;52.516;13.564;2023-02-22T03:41:07;101028.97;;;5.18;93.98
23473;BME280;11909;52.516;13.564;2023-02-22T03:43:40;101028.50;;;5.09;94.26
23473;BME280;11909;52.516;13.564;2023-02-22T03:46:11;101024.22;;;5.13;95.02
23473;BME280;11909;52.516;13.564;2023-02-22T03:48:44;101025.28;;;5.12;95.37
23473;BME280;11909;52.516;13.564;2023-02-22T03:51:16;101029.91;;;5.12;95.20
23473;BME280;11909;52.516;13.564;2023-02-22T03:53:45;101039.00;;;5.06;95.16
23473;BME280;11909;52.516;13.564;2023-02-22T03:56:17;101031.69;;;5.06;95.80
23473;BME280;11909;52.516;13.564;2023-02-22T03:58:48;101032.16;;;5.03;96.19
23473;BME280;11909;52.516;13.564;2023-02-22T04:01:16;101039.38;;;4.97;96.76
23473;BME280;11909;52.516;13.564;2023-02-22T04:03:45;101030.72;;;5.00;96.83
23473;BME280;11909;52.516;13.564;2023-02-22T04:06:13;101030.13;;;4.98;97.40
23473;BME280;11909;52.516;13.564;2023-02-22T04:08:42;101039.75;;;5.01;97.32
23473;BME280;11909;52.516;13.564;2023-02-22T04:11:10;101039.97;;;4.99;97.29
23473;BME280;11909;52.516;13.564;2023-02-22T04:13:38;101038.31;;;4.98;98.17
23473;BME280;11909;52.516;13.564;2023-02-22T04:16:06;101035.59;;;4.98;99.01
23473;BME280;11909;52.516;13.564;2023-02-22T04:18:33;101029.78;;;4.95;99.63
23473;BME280;11909;52.516;13.564;2023-02-22T04:21:02;101030.97;;;4.99;99.81
23473;BME280;11909;52.516;13.564;2023-02-22T04:23:29;101037.50;;;4.98;99.55
23473;BME280;11909;52.516;13.564;2023-02-22T04:25:58;101028.84;;;5.01;98.92
23473;BME280;11909;52.516;13.564;2023-02-22T04:28:26;101035.09;;;5.01;99.01
23473;BME280;11909;52.516;13.564;2023-02-22T04:30:54;101022.81;;;4.99;99.42
23473;BME280;11909;52.516;13.564;2023-02-22T04:33:21;101024.69;;;4.98;99.57
23473;BME280;11909;52.516;13.564;2023-02-22T04:35:49;101021.41;;;4.96;100.00
23473;BME280;11909;52.516;13.564;2023-02-22T04:38:17;101026.00;;;4.96;100.00
23473;BME280;11909;52.516;13.564;2023-02-22T04:40:45;101028.38;;;4.92;100.00
23473;BME280;11909;52.516;13.564;2023-02-22T04:43:14;101028.59;;;4.91;100.00
23473;BME280;11909;52.516;13.564;2023-02-22T04:45:41;101025.41;;;4.94;100.00
23473;BME280;11909;52.516;13.564;2023-02-22T04:48:09;101027.06;;;4.95;100.00
23473;BME280;11909;52.516;13.564;2023-02-22T04:50:37;101024.59;;;4.93;100.00
23473;BME280;11909;52.516;13.564;2023-02-22T04:53:05;101021.28;;;4.91;100.00
23473;BME280;11909;52.516;13.564;2023-02-22T04:55:33;101023.63;;;4.87;100.00
23473;BME280;11909;52.516;13.564;2023-02-22T04:58:01;101016.16;;;4.83;100.00
23473;BME280;11909;52.516;13.564;2023-02-22T05:00:30;101013.69;;;4.81;100.00
23473;BME280;11909;52.516;13.564;2023-02-22T05:02:58;101020.19;;;4.80;100.00
23473;BME280;11909;52.516;13.564;2023-02-22T05:05:25;101019.94;;;4.82;100.00
23473;BME280;11909;52.516;13.564;2023-02-22T05:07:53;101020.78;;;4.82;100.00
23473;BME280;11909;52.516;13.564;2023-02-22T05:10:21;101017.81;;;4.84;100.00
23473;BME280;11909;52.516;13.564;2023-02-22T05:12:50;101021.97;;;4.86;100.00
23473;BME280;11909;52.516;13.564;2023-02-22T05:15:19;101015.09;;;4.84;100.00
23473;BME280;11909;52.516;13.564;2023-02-22T05:17:49;101010.50;;;4.84;100.00
23473;BME280;11909;52.516;13.564;2023-02-22T05:20:24;101006.94;;;4.84;100.00
23473;BME280;11909;52.516;13.564;2023-02-22T05:22:54;101012.38;;;4.84;100.00
23473;BME280;11909;52.516;13.564;2023-02-22T05:25:22;101015.56;;;4.81;100.00
23473;BME280;11909;52.516;13.564;2023-02-22T05:27:50;101012.28;;;4.79;100.00
23473;BME280;11909;52.516;13.564;2023-02-22T05:30:20;101020.09;;;4.87;100.00
23473;BME280;11909;52.516;13.564;2023-02-22T05:32:50;101007.78;;;4.84;100.00
23473;BME280;11909;52.516;13.564;2023-02-22T05:35:18;101005.91;;;4.97;100.00
23473;BME280;11909;52.516;13.564;2023-02-22T05:37:46;101002.94;;;5.10;100.00
23473;BME280;11909;52.516;13.564;2023-02-22T05:40:17;101012.41;;;5.08;100.00
23473;BME280;11909;52.516;13.564;2023-02-22T05:42:45;101007.78;;;4.96;100.00
23473;BME280;11909;52.516;13.564;2023-02-22T05:45:15;101010.41;;;4.91;100.00
23473;BME280;11909;52.516;13.564;2023-02-22T05:47:44;101019.03;;;4.88;100.00
23473;BME280;11909;52.516;13.564;2023-02-22T05:50:14;101019.13;;;4.81;100.00
23473;BME280;11909;52.516;13.564;2023-02-22T05:52:42;101015.47;;;4.87;100.00
23473;BME280;11909;52.516;13.564;2023-02-22T05:55:12;101021.50;;;4.90;100.00
23473;BME280;11909;52.516;13.564;2023-02-22T05:57:40;101028.25;;;4.87;100.00
23473;BME280;11909;52.516;13.564;2023-02-22T06:00:09;101026.34;;;4.87;100.00
23473;BME280;11909;52.516;13.564;2023-02-22T06:02:38;101031.31;;;4.91;100.00
23473;BME280;11909;52.516;13.564;2023-02-22T06:05:06;101027.91;;;4.95;100.00
23473;BME280;11909;52.516;13.564;2023-02-22T06:07:35;101024.97;;;4.97;100.00
23473;BME280;11909;52.516;13.564;2023-02-22T06:10:04;101026.59;;;4.98;100.00
23473;BME280;11909;52.516;13.564;2023-02-22T06:12:32;101020.09;;;4.99;100.00
23473;BME280;11909;52.516;13.564;2023-02-22T06:14:59;101030.72;;;5.00;100.00
23473;BME280;11909;52.516;13.564;2023-02-22T06:17:27;101039.25;;;5.04;100.00
23473;BME280;11909;52.516;13.564;2023-02-22T06:19:55;101033.13;;;5.09;100.00
23473;BME280;11909;52.516;13.564;2023-02-22T06:22:23;101036.06;;;5.07;100.00
23473;BME280;11909;52.516;13.564;2023-02-22T06:24:52;101043.16;;;5.08;100.00
23473;BME280;11909;52.516;13.564;2023-02-22T06:27:20;101029.34;;;5.10;100.00
23473;BME280;11909;52.516;13.564;2023-02-22T06:29:48;101035.38;;;5.12;100.00
23473;BME280;11909;52.516;13.564;2023-02-22T06:32:15;101043.38;;;5.07;100.00
23473;BME280;11909;52.516;13.564;2023-02-22T06:34:43;101045.28;;;5.06;100.00
23473;BME280;11909;52.516;13.564;2023-02-22T06:37:11;101043.53;;;5.12;100.00
23473;BME280;11909;52.516;13.564;2023-02-22T06:39:38;101044.69;;;5.16;100.00
23473;BME280;11909;52.516;13.564;2023-02-22T06:42:08;101048.97;;;5.24;100.00
23473;BME280;11909;52.516;13.564;2023-02-22T06:44:35;101050.38;;;5.26;100.00
23473;BME280;11909;52.516;13.564;2023-02-22T06:47:03;101047.91;;;5.25;100.00
23473;BME280;11909;52.516;13.564;2023-02-22T06:49:31;101054.41;;;5.24;100.00
23473;BME280;11909;52.516;13.564;2023-02-22T06:51:58;101056.06;;;5.25;100.00
23473;BME280;11909;52.516;13.564;2023-02-22T06:54:26;101055.59;;;5.28;100.00
23473;BME280;11909;52.516;13.564;2023-02-22T06:56:54;101058.91;;;5.30;100.00
23473;BME280;11909;52.516;13.564;2023-02-22T06:59:23;101060.56;;;5.31;100.00
23473;BME280;11909;52.516;13.564;2023-02-22T07:01:51;101056.75;;;5.32;100.00
23473;BME280;11909;52.516;13.564;2023-02-22T07:04:18;101057.94;;;5.36;100.00
23473;BME280;11909;52.516;13.564;2023-02-22T07:06:46;101061.03;;;5.40;100.00
23473;BME280;11909;52.516;13.564;2023-02-22T07:09:16;101073.09;;;5.44;100.00
23473;BME280;11909;52.516;13.564;2023-02-22T07:11:44;101063.63;;;5.47;100.00
23473;BME280;11909;52.516;13.564;2023-02-22T07:14:12;101056.16;;;5.54;100.00
23473;BME280;11909;52.516;13.564;2023-02-22T07:16:43;101064.41;;;5.59;100.00
23473;BME280;11909;52.516;13.564;2023-02-22T07:19:11;101063.63;;;5.58;100.00
23473;BME280;11909;52.516;13.564;2023-02-22T07:21:39;101065.50;;;5.58;100.00
23473;BME280;11909;52.516;13.564;2023-02-22T07:24:07;101065.25;;;5.59;100.00
23473;BME280;11909;52.516;13.564;2023-02-22T07:26:38;101071.03;;;5.63;100.00
23473;BME280;11909;52.516;13.564;2023-02-22T07:29:06;101065.94;;;5.67;100.00
23473;BME280;11909;52.516;13.564;2023-02-22T07:31:37;101070.91;;;5.70;100.00
23473;BME280;11909;52.516;13.564;2023-02-22T07:34:06;101071.03;;;5.75;100.00
23473;BME280;11909;52.516;13.564;2023-02-22T07:36:34;101065.34;;;5.77;100.00
23473;BME280;11909;52.516;13.564;2023-02-22T07:39:01;101073.28;;;5.78;100.00
23473;BME280;11909;52.516;13.564;2023-02-22T07:41:29;101071.97;;;5.81;100.00
23473;BME280;11909;52.516;13.564;2023-02-22T07:43:57;101072.31;;;5.84;100.00
23473;BME280;11909;52.516;13.564;2023-02-22T07:46:24;101070.19;;;5.86;100.00
23473;BME280;11909;52.516;13.564;2023-02-22T07:48:52;101077.88;;;5.89;100.00
23473;BME280;11909;52.516;13.564;2023-02-22T07:51:21;101078.44;;;5.92;100.00
23473;BME280;11909;52.516;13.564;2023-02-22T07:53:49;101071.44;;;5.96;100.00
23473;BME280;11909;52.516;13.564;2023-02-22T07:56:17;101070.38;;;5.97;100.00
23473;BME280;11909;52.516;13.564;2023-02-22T07:58:44;101071.13;;;6.04;100.00
23473;BME280;11909;52.516;13.564;2023-02-22T08:01:12;101074.16;;;6.08;100.00
23473;BME280;11909;52.516;13.564;2023-02-22T08:03:40;101069.41;;;6.15;100.00
23473;BME280;11909;52.516;13.564;2023-02-22T08:06:08;101074.88;;;6.15;100.00
23473;BME280;11909;52.516;13.564;2023-02-22T08:08:37;101071.41;;;6.20;100.00
23473;BME280;11909;52.516;13.564;2023-02-22T08:11:05;101082.66;;;6.23;100.00
23473;BME280;11909;52.516;13.564;2023-02-22T08:13:34;101076.34;;;6.23;100.00
23473;BME280;11909;52.516;13.564;2023-02-22T08:16:02;101076.97;;;6.25;100.00
23473;BME280;11909;52.516;13.564;2023-02-22T08:18:30;101078.81;;;6.36;100.00
23473;BME280;11909;52.516;13.564;2023-02-22T08:20:58;101084.59;;;6.40;100.00
23473;BME280;11909;52.516;13.564;2023-02-22T08:23:25;101084.53;;;6.35;99.83
23473;BME280;11909;52.516;13.564;2023-02-22T08:25:55;101084.97;;;6.31;100.00
23473;BME280;11909;52.516;13.564;2023-02-22T08:28:23;101084.75;;;6.33;99.88
23473;BME280;11909;52.516;13.564;2023-02-22T08:30:51;101082.03;;;6.33;100.00
23473;BME280;11909;52.516;13.564;2023-02-22T08:33:19;101083.44;;;6.36;99.96
23473;BME280;11909;52.516;13.564;2023-02-22T08:35:47;101082.94;;;6.39;100.00
23473;BME280;11909;52.516;13.564;2023-02-22T08:38:18;101081.13;;;6.44;100.00
23473;BME280;11909;52.516;13.564;2023-02-22T08:40:47;101083.13;;;6.49;100.00
23473;BME280;11909;52.516;13.564;2023-02-22T08:43:17;101073.28;;;6.48;100.00
23473;BME280;11909;52.516;13.564;2023-02-22T08:45:46;101080.16;;;6.51;100.00
23473;BME280;11909;52.516;13.564;2023-02-22T08:48:14;101073.72;;;6.57;100.00
23473;BME280;11909;52.516;13.564;2023-02-22T08:50:42;101073.72;;;6.57;99.41
23473;BME280;11909;52.516;13.564;2023-02-22T08:53:12;101088.94;;;6.53;99.01
23473;BME280;11909;52.516;13.564;2023-02-22T08:55:40;101082.97;;;6.56;99.23
23473;BME280;11909;52.516;13.564;2023-02-22T08:58:08;101084.41;;;6.58;99.41
23473;BME280;11909;52.516;13.564;2023-02-22T09:00:38;101087.22;;;6.64;99.34
23473;BME280;11909;52.516;13.564;2023-02-22T09:03:08;101085.06;;;6.66;99.49
23473;BME280;11909;52.516;13.564;2023-02-22T09:05:36;101091.44;;;6.71;99.69
23473;BME280;11909;52.516;13.564;2023-02-22T09:08:04;101087.16;;;6.76;99.66
23473;BME280;11909;52.516;13.564;2023-02-22T09:10:33;101087.47;;;6.79;99.46
23473;BME280;11909;52.516;13.564;2023-02-22T09:13:02;101091.63;;;6.82;99.19
23473;BME280;11909;52.516;13.564;2023-02-22T09:15:31;101092.75;;;6.86;98.63
23473;BME280;11909;52.516;13.564;2023-02-22T09:18:01;101089.22;;;6.85;98.32
23473;BME280;11909;52.516;13.564;2023-02-22T09:20:29;101100.94;;;6.86;98.79
23473;BME280;11909;52.516;13.564;2023-02-22T09:22:56;101088.56;;;6.95;99.06
23473;BME280;11909;52.516;13.564;2023-02-22T09:25:25;101100.06;;;6.97;99.33
23473;BME280;11909;52.516;13.564;2023-02-22T09:27:54;101091.88;;;6.97;98.76
23473;BME280;11909;52.516;13.564;2023-02-22T09:30:25;101094.91;;;7.01;98.60
23473;BME280;11909;52.516;13.564;2023-02-22T09:32:54;101094.53;;;7.09;98.55
23473;BME280;11909;52.516;13.564;2023-02-22T09:35:25;101098.34;;;7.08;98.18
23473;BME280;11909;52.516;13.564;2023-02-22T09:37:54;101093.69;;;7.09;98.58
23473;BME280;11909;52.516;13.564;2023-02-22T09:40:23;101089.88;;;7.10;97.69
23473;BME280;11909;52.516;13.564;2023-02-22T09:43:03;101089.38;;;7.13;97.76
23473;BME280;11909;52.516;13.564;2023-02-22T09:45:38;101091.38;;;7.17;95.69
23473;BME280;11909;52.516;13.564;2023-02-22T09:48:11;101080.13;;;7.14;95.01
23473;BME280;11909;52.516;13.564;2023-02-22T09:50:51;101081.53;;;7.16;95.80
23473;BME280;11909;52.516;13.564;2023-02-22T09:53:24;101078.13;;;7.26;96.72
23473;BME280;11909;52.516;13.564;2023-02-22T09:55:58;101081.19;;;7.30;95.38
23473;BME280;11909;52.516;13.564;2023-02-22T09:58:31;101080.44;;;7.35;93.83
23473;BME280;11909;52.516;13.564;2023-02-22T10:01:17;101083.16;;;7.35;94.08
23473;BME280;11909;52.516;13.564;2023-02-22T10:03:52;101082.06;;;7.36;94.34
23473;BME280;11909;52.516;13.564;2023-02-22T10:06:24;101080.03;;;7.43;94.51
23473;BME280;11909;52.516;13.564;2023-02-22T10:08:53;101076.22;;;7.44;94.04
23473;BME280;11909;52.516;13.564;2023-02-22T10:11:34;101078.44;;;7.47;94.14
23473;BME280;11909;52.516;13.564;2023-02-22T10:14:15;101077.13;;;7.50;93.53
23473;BME280;11909;52.516;13.564;2023-02-22T10:16:51;101071.97;;;7.53;93.43
23473;BME280;11909;52.516;13.564;2023-02-22T10:19:26;101084.41;;;7.66;89.58
23473;BME280;11909;52.516;13.564;2023-02-22T10:22:11;101078.38;;;7.64;90.60
23473;BME280;11909;52.516;13.564;2023-02-22T10:24:48;101079.22;;;7.65;91.63
23473;BME280;11909;52.516;13.564;2023-02-22T10:27:21;101071.44;;;7.73;91.40
23473;BME280;11909;52.516;13.564;2023-02-22T10:29:59;101073.44;;;7.83;90.69
23473;BME280;11909;52.516;13.564;2023-02-22T10:32:46;101070.69;;;7.83;89.21
23473;BME280;11909;52.516;13.564;2023-02-22T10:35:21;101080.59;;;7.84;89.67
23473;BME280;11909;52.516;13.564;2023-02-22T10:37:53;101071.34;;;7.91;88.33
23473;BME280;11909;52.516;13.564;2023-02-22T10:40:23;101075.22;;;7.95;88.26
23473;BME280;11909;52.516;13.564;2023-02-22T10:43:01;101077.41;;;7.93;88.24
23473;BME280;11909;52.516;13.564;2023-02-22T10:45:30;101080.75;;;8.00;87.08
23473;BME280;11909;52.516;13.564;2023-02-22T10:48:03;101078.53;;;7.97;84.82
23473;BME280;11909;52.516;13.564;2023-02-22T10:50:35;101082.22;;;8.08;81.56
23473;BME280;11909;52.516;13.564;2023-02-22T10:53:07;101088.00;;;8.11;81.25
23473;BME280;11909;52.516;13.564;2023-02-22T10:55:35;101087.16;;;8.11;80.95
23473;BME280;11909;52.516;13.564;2023-02-22T10:58:22;101082.16;;;8.02;81.84
23473;BME280;11909;52.516;13.564;2023-02-22T11:00:50;101089.34;;;8.09;78.70
23473;BME280;11909;52.516;13.564;2023-02-22T11:03:19;101097.16;;;8.22;77.87
23473;BME280;11909;52.516;13.564;2023-02-22T11:05:49;101096.31;;;8.22;77.26
23473;BME280;11909;52.516;13.564;2023-02-22T11:08:29;101093.25;;;8.18;77.96
23473;BME280;11909;52.516;13.564;2023-02-22T11:11:00;101095.81;;;8.25;77.68
23473;BME280;11909;52.516;13.564;2023-02-22T11:13:29;101099.44;;;8.30;76.25
23473;BME280;11909;52.516;13.564;2023-02-22T11:15:59;101094.16;;;8.24;76.88
23473;BME280;11909;52.516;13.564;2023-02-22T11:18:31;101091.59;;;8.17;77.18
23473;BME280;11909;52.516;13.564;2023-02-22T11:21:02;101088.06;;;8.16;77.62
23473;BME280;11909;52.516;13.564;2023-02-22T11:23:32;101089.38;;;8.14;77.50
23473;BME280;11909;52.516;13.564;2023-02-22T11:26:06;101085.84;;;8.13;78.49
23473;BME280;11909;52.516;13.564;2023-02-22T11:28:36;101081.84;;;8.21;77.43
23473;BME280;11909;52.516;13.564;2023-02-22T11:31:13;101081.56;;;8.23;77.72
23473;BME280;11909;52.516;13.564;2023-02-22T11:33:49;101078.69;;;8.35;77.80
23473;BME280;11909;52.516;13.564;2023-02-22T11:36:33;101076.22;;;8.33;77.23
23473;BME280;11909;52.516;13.564;2023-02-22T11:39:05;101067.88;;;8.23;78.79
23473;BME280;11909;52.516;13.564;2023-02-22T11:41:37;101058.59;;;8.24;80.37
23473;BME280;11909;52.516;13.564;2023-02-22T11:44:19;101066.56;;;8.25;79.47
23473;BME280;11909;52.516;13.564;2023-02-22T11:46:50;101052.69;;;8.32;79.71
23473;BME280;11909;52.516;13.564;2023-02-22T11:49:22;101048.56;;;8.29;80.13
23473;BME280;11909;52.516;13.564;2023-02-22T11:52:04;101044.00;;;8.40;78.58
23473;BME280;11909;52.516;13.564;2023-02-22T11:54:46;101045.81;;;8.29;79.60
23473;BME280;11909;52.516;13.564;2023-02-22T11:57:31;101052.09;;;8.30;79.34
23473;BME280;11909;52.516;13.564;2023-02-22T12:00:12;101041.22;;;8.08;79.78
23473;BME280;11909;52.516;13.564;2023-02-22T12:02:53;101037.25;;;8.21;80.28
23473;BME280;11909;52.516;13.564;2023-02-22T12:05:33;101031.00;;;8.25;80.87
23473;BME280;11909;52.516;13.564;2023-02-22T12:08:18;101036.56;;;8.36;79.97
23473;BME280;11909;52.516;13.564;2023-02-22T12:10:58;101029.97;;;8.31;80.04
23473;BME280;11909;52.516;13.564;2023-02-22T12:13:39;101025.06;;;8.33;79.48
23473;BME280;11909;52.516;13.564;2023-02-22T12:16:19;101030.38;;;8.45;78.25
23473;BME280;11909;52.516;13.564;2023-02-22T12:19:06;101030.03;;;8.37;78.31
23473;BME280;11909;52.516;13.564;2023-02-22T12:21:40;101018.84;;;8.38;78.74
23473;BME280;11909;52.516;13.564;2023-02-22T12:24:11;101030.66;;;8.44;78.16
23473;BME280;11909;52.516;13.564;2023-02-22T12:26:46;101041.31;;;8.45;77.02
23473;BME280;11909;52.516;13.564;2023-02-22T12:29:23;101032.88;;;8.47;77.87
23473;BME280;11909;52.516;13.564;2023-02-22T12:31:56;101033.97;;;8.46;77.79
23473;BME280;11909;52.516;13.564;2023-02-22T12:34:32;101034.94;;;8.62;75.48
23473;BME280;11909;52.516;13.564;2023-02-22T12:37:09;101032.94;;;8.52;76.48
23473;BME280;11909;52.516;13.564;2023-02-22T12:39:45;101027.13;;;8.49;76.31
23473;BME280;11909;52.516;13.564;2023-02-22T12:42:26;101035.25;;;8.66;74.69
23473;BME280;11909;52.516;13.564;2023-02-22T12:45:00;101044.84;;;8.68;73.44
23473;BME280;11909;52.516;13.564;2023-02-22T12:47:54;101038.25;;;8.64;74.23
23473;BME280;11909;52.516;13.564;2023-02-22T12:50:28;101032.75;;;8.59;75.02
23473;BME280;11909;52.516;13.564;2023-02-22T12:53:07;101034.63;;;8.58;74.38
23473;BME280;11909;52.516;13.564;2023-02-22T12:55:42;101035.00;;;8.67;74.12
23473;BME280;11909;52.516;13.564;2023-02-22T12:58:20;101033.91;;;8.68;73.71
23473;BME280;11909;52.516;13.564;2023-02-22T13:00:57;101039.56;;;8.61;74.58
23473;BME280;11909;52.516;13.564;2023-02-22T13:03:31;101038.00;;;8.66;74.47
23473;BME280;11909;52.516;13.564;2023-02-22T13:06:13;101036.91;;;8.67;74.12
23473;BME280;11909;52.516;13.564;2023-02-22T13:08:51;101037.69;;;8.62;75.31
23473;BME280;11909;52.516;13.564;2023-02-22T13:11:27;101033.91;;;8.68;74.38